sensor_id;sensor_type;location;lat;lon;timestamp;pressure;altitude;pressure_sealevel;temperature;humidity
56006;BME280;41888;44.696;10.522;2023-02-10T00:01:32;102613.91;;;-1.87;81.08
56006;BME280;41888;44.696;10.522;2023-02-10T00:03:59;102613.91;;;-1.87;81.83
56006;BME280;41888;44.696;10.522;2023-02-10T00:06:26;102610.66;;;-1.92;81.47
56006;BME280;41888;44.696;10.522;2023-02-10T00:09:03;102612.63;;;-1.79;81.60
56006;BME280;41888;44.696;10.522;2023-02-10T00:11:29;102602.31;;;-2.00;82.60
56006;BME280;41888;44.696;10.522;2023-02-10T00:14:15;102592.13;;;-2.05;82.46
56006;BME280;41888;44.696;10.522;2023-02-10T00:16:42;102599.19;;;-2.07;83.14
56006;BME280;41888;44.696;10.522;2023-02-10T00:19:08;102601.06;;;-2.10;83.47
56006;BME280;41888;44.696;10.522;2023-02-10T00:21:34;102601.41;;;-1.99;82.33
56006;BME280;41888;44.696;10.522;2023-02-10T00:24:02;102595.78;;;-2.09;83.10
56006;BME280;41888;44.696;10.522;2023-02-10T00:26:28;102593.13;;;-2.07;83.27
56006;BME280;41888;44.696;10.522;2023-02-10T00:28:54;102596.41;;;-2.04;83.09
56006;BME280;41888;44.696;10.522;2023-02-10T00:31:20;102597.91;;;-1.98;82.72
56006;BME280;41888;44.696;10.522;2023-02-10T00:33:47;102593.88;;;-2.05;83.48
56006;BME280;41888;44.696;10.522;2023-02-10T00:36:15;102589.47;;;-2.22;84.33
56006;BME280;41888;44.696;10.522;2023-02-10T00:38:42;102592.47;;;-2.13;84.09
56006;BME280;41888;44.696;10.522;2023-02-10T00:41:11;102600.38;;;-2.14;84.60
56006;BME280;41888;44.696;10.522;2023-02-10T00:43:38;102591.47;;;-2.10;84.39
56006;BME280;41888;44.696;10.522;2023-02-10T00:46:08;102596.91;;;-2.15;85.07
56006;BME280;41888;44.696;10.522;2023-02-10T00:48:35;102584.78;;;-2.34;86.27
56006;BME280;41888;44.696;10.522;2023-02-10T00:51:02;102582.66;;;-2.45;87.21
56006;BME280;41888;44.696;10.522;2023-02-10T00:53:28;102582.03;;;-2.50;86.97
56006;BME280;41888;44.696;10.522;2023-02-10T00:55:55;102583.13;;;-2.56;86.99
56006;BME280;41888;44.696;10.522;2023-02-10T00:58:21;102580.47;;;-2.54;87.04
56006;BME280;41888;44.696;10.522;2023-02-10T01:00:48;102580.75;;;-2.60;87.32
56006;BME280;41888;44.696;10.522;2023-02-10T01:03:14;102581.59;;;-2.60;86.98
56006;BME280;41888;44.696;10.522;2023-02-10T01:05:40;102587.81;;;-2.64;87.57
56006;BME280;41888;44.696;10.522;2023-02-10T01:08:07;102579.38;;;-2.69;87.69
56006;BME280;41888;44.696;10.522;2023-02-10T01:10:34;102575.84;;;-2.68;87.88
56006;BME280;41888;44.696;10.522;2023-02-10T01:13:04;102576.38;;;-2.80;88.33
56006;BME280;41888;44.696;10.522;2023-02-10T01:15:31;102568.72;;;-2.64;87.24
56006;BME280;41888;44.696;10.522;2023-02-10T01:17:58;102567.91;;;-2.65;87.25
56006;BME280;41888;44.696;10.522;2023-02-10T01:20:25;102561.59;;;-2.79;88.08
56006;BME280;41888;44.696;10.522;2023-02-10T01:22:51;102571.81;;;-2.75;88.30
56006;BME280;41888;44.696;10.522;2023-02-10T01:25:18;102566.69;;;-2.76;88.31
56006;BME280;41888;44.696;10.522;2023-02-10T01:27:44;102561.97;;;-2.68;88.13
56006;BME280;41888;44.696;10.522;2023-02-10T01:30:11;102557.13;;;-2.57;87.29
56006;BME280;41888;44.696;10.522;2023-02-10T01:32:37;102556.91;;;-2.71;87.61
56006;BME280;41888;44.696;10.522;2023-02-10T01:35:04;102560.03;;;-2.83;89.07
56006;BME280;41888;44.696;10.522;2023-02-10T01:37:30;102569.28;;;-2.76;88.68
56006;BME280;41888;44.696;10.522;2023-02-10T01:39:56;102560.94;;;-2.84;88.87
56006;BME280;41888;44.696;10.522;2023-02-10T01:42:22;102557.84;;;-2.92;89.16
56006;BME280;41888;44.696;10.522;2023-02-10T01:47:15;102554.03;;;-2.85;89.11
56006;BME280;41888;44.696;10.522;2023-02-10T01:49:45;102553.66;;;-2.76;88.24
56006;BME280;41888;44.696;10.522;2023-02-10T01:52:22;102550.97;;;-2.75;88.00
56006;BME280;41888;44.696;10.522;2023-02-10T01:54:56;102550.94;;;-2.93;88.93
56006;BME280;41888;44.696;10.522;2023-02-10T01:57:25;102551.19;;;-2.79;88.49
56006;BME280;41888;44.696;10.522;2023-02-10T01:59:51;102550.16;;;-2.75;88.34
56006;BME280;41888;44.696;10.522;2023-02-10T02:02:18;102546.31;;;-2.87;88.80
56006;BME280;41888;44.696;10.522;2023-02-10T02:07:54;102549.75;;;-2.66;87.68
56006;BME280;41888;44.696;10.522;2023-02-10T02:10:26;102551.19;;;-2.79;88.17
56006;BME280;41888;44.696;10.522;2023-02-10T02:13:01;102556.31;;;-2.78;87.94
56006;BME280;41888;44.696;10.522;2023-02-10T02:15:47;102556.59;;;-2.84;88.06
56006;BME280;41888;44.696;10.522;2023-02-10T02:18:44;102554.63;;;-2.79;87.55
56006;BME280;41888;44.696;10.522;2023-02-10T02:24:01;102542.81;;;-2.86;88.38
56006;BME280;41888;44.696;10.522;2023-02-10T02:26:40;102537.50;;;-2.84;88.00
56006;BME280;41888;44.696;10.522;2023-02-10T02:34:39;102536.75;;;-2.86;87.87
56006;BME280;41888;44.696;10.522;2023-02-10T02:39:38;102526.75;;;-2.77;86.95
56006;BME280;41888;44.696;10.522;2023-02-10T02:44:52;102525.38;;;-2.85;87.39
56006;BME280;41888;44.696;10.522;2023-02-10T02:59:07;102516.09;;;-3.11;89.48
56006;BME280;41888;44.696;10.522;2023-02-10T03:04:07;102512.00;;;-3.17;90.55
56006;BME280;41888;44.696;10.522;2023-02-10T03:06:34;102510.19;;;-3.15;90.20
56006;BME280;41888;44.696;10.522;2023-02-10T03:09:00;102500.78;;;-3.17;90.49
56006;BME280;41888;44.696;10.522;2023-02-10T03:11:26;102501.59;;;-3.17;90.25
56006;BME280;41888;44.696;10.522;2023-02-10T03:13:53;102504.34;;;-3.40;92.33
56006;BME280;41888;44.696;10.522;2023-02-10T03:16:19;102501.09;;;-3.45;92.91
56006;BME280;41888;44.696;10.522;2023-02-10T03:18:45;102501.09;;;-3.45;92.97
56006;BME280;41888;44.696;10.522;2023-02-10T03:21:11;102500.25;;;-3.46;92.54
56006;BME280;41888;44.696;10.522;2023-02-10T03:23:37;102491.44;;;-3.43;92.15
56006;BME280;41888;44.696;10.522;2023-02-10T03:26:04;102497.66;;;-3.46;92.16
56006;BME280;41888;44.696;10.522;2023-02-10T03:28:30;102494.06;;;-3.43;91.55
56006;BME280;41888;44.696;10.522;2023-02-10T03:30:56;102493.50;;;-3.50;91.66
56006;BME280;41888;44.696;10.522;2023-02-10T03:33:23;102494.69;;;-3.58;92.43
56006;BME280;41888;44.696;10.522;2023-02-10T03:35:49;102494.94;;;-3.64;93.24
56006;BME280;41888;44.696;10.522;2023-02-10T03:38:15;102491.44;;;-3.63;93.25
56006;BME280;41888;44.696;10.522;2023-02-10T03:40:42;102490.69;;;-3.65;93.50
56006;BME280;41888;44.696;10.522;2023-02-10T03:43:08;102490.34;;;-3.58;93.25
56006;BME280;41888;44.696;10.522;2023-02-10T03:45:34;102490.59;;;-3.64;92.99
56006;BME280;41888;44.696;10.522;2023-02-10T03:48:01;102494.13;;;-3.65;93.37
56006;BME280;41888;44.696;10.522;2023-02-10T03:50:28;102488.09;;;-3.65;93.11
56006;BME280;41888;44.696;10.522;2023-02-10T03:52:54;102491.78;;;-3.71;93.43
56006;BME280;41888;44.696;10.522;2023-02-10T03:55:20;102489.88;;;-3.67;93.47
56006;BME280;41888;44.696;10.522;2023-02-10T03:57:46;102494.13;;;-3.65;93.48
56006;BME280;41888;44.696;10.522;2023-02-10T04:00:14;102493.16;;;-3.62;93.25
56006;BME280;41888;44.696;10.522;2023-02-10T04:02:40;102497.50;;;-3.63;93.17
56006;BME280;41888;44.696;10.522;2023-02-10T04:05:06;102499.63;;;-3.72;93.88
56006;BME280;41888;44.696;10.522;2023-02-10T04:07:33;102506.34;;;-3.67;93.24
56006;BME280;41888;44.696;10.522;2023-02-10T04:09:59;102503.56;;;-3.62;92.88
56006;BME280;41888;44.696;10.522;2023-02-10T04:12:25;102505.09;;;-3.58;92.91
56006;BME280;41888;44.696;10.522;2023-02-10T04:14:51;102508.75;;;-3.62;92.49
56006;BME280;41888;44.696;10.522;2023-02-10T04:17:17;102514.03;;;-3.44;90.79
56006;BME280;41888;44.696;10.522;2023-02-10T04:19:44;102511.13;;;-3.36;90.33
56006;BME280;41888;44.696;10.522;2023-02-10T04:22:10;102505.91;;;-3.36;90.25
56006;BME280;41888;44.696;10.522;2023-02-10T04:24:36;102511.75;;;-3.31;89.50
56006;BME280;41888;44.696;10.522;2023-02-10T04:27:02;102516.00;;;-3.28;89.56
56006;BME280;41888;44.696;10.522;2023-02-10T04:29:29;102513.56;;;-3.33;89.76
56006;BME280;41888;44.696;10.522;2023-02-10T04:31:55;102512.59;;;-3.51;91.05
56006;BME280;41888;44.696;10.522;2023-02-10T04:34:21;102517.75;;;-3.49;90.82
56006;BME280;41888;44.696;10.522;2023-02-10T04:36:47;102516.47;;;-3.39;90.02
56006;BME280;41888;44.696;10.522;2023-02-10T04:39:13;102512.34;;;-3.45;90.54
56006;BME280;41888;44.696;10.522;2023-02-10T04:41:39;102511.63;;;-3.48;91.10
56006;BME280;41888;44.696;10.522;2023-02-10T04:44:06;102511.69;;;-3.50;90.89
56006;BME280;41888;44.696;10.522;2023-02-10T04:46:32;102508.75;;;-3.62;91.60
56006;BME280;41888;44.696;10.522;2023-02-10T04:48:58;102508.03;;;-3.66;91.91
56006;BME280;41888;44.696;10.522;2023-02-10T04:51:24;102513.78;;;-3.79;92.77
56006;BME280;41888;44.696;10.522;2023-02-10T04:53:50;102518.78;;;-3.75;92.53
56006;BME280;41888;44.696;10.522;2023-02-10T04:56:17;102512.50;;;-3.69;92.03
56006;BME280;41888;44.696;10.522;2023-02-10T04:58:43;102508.41;;;-3.75;92.18
56006;BME280;41888;44.696;10.522;2023-02-10T05:01:09;102520.63;;;-3.77;92.15
56006;BME280;41888;44.696;10.522;2023-02-10T05:03:35;102513.53;;;-3.73;92.86
56006;BME280;41888;44.696;10.522;2023-02-10T05:06:11;102516.53;;;-3.83;94.06
56006;BME280;41888;44.696;10.522;2023-02-10T05:08:38;102516.09;;;-3.94;94.91
56006;BME280;41888;44.696;10.522;2023-02-10T05:11:15;102520.50;;;-3.96;95.98
56006;BME280;41888;44.696;10.522;2023-02-10T05:13:42;102515.91;;;-3.89;95.60
56006;BME280;41888;44.696;10.522;2023-02-10T05:16:09;102517.47;;;-3.85;94.94
56006;BME280;41888;44.696;10.522;2023-02-10T05:18:36;102515.69;;;-3.83;94.50
56006;BME280;41888;44.696;10.522;2023-02-10T05:21:05;102513.91;;;-3.83;94.44
56006;BME280;41888;44.696;10.522;2023-02-10T05:23:35;102511.50;;;-3.87;95.51
56006;BME280;41888;44.696;10.522;2023-02-10T05:26:01;102507.25;;;-3.90;95.45
56006;BME280;41888;44.696;10.522;2023-02-10T05:28:27;102511.84;;;-3.96;95.72
56006;BME280;41888;44.696;10.522;2023-02-10T05:30:54;102507.44;;;-3.94;95.60
56006;BME280;41888;44.696;10.522;2023-02-10T05:33:20;102509.19;;;-3.95;94.71
56006;BME280;41888;44.696;10.522;2023-02-10T05:35:47;102504.72;;;-3.91;94.88
56006;BME280;41888;44.696;10.522;2023-02-10T05:38:13;102512.38;;;-3.87;94.17
56006;BME280;41888;44.696;10.522;2023-02-10T05:40:39;102514.16;;;-3.89;94.28
56006;BME280;41888;44.696;10.522;2023-02-10T05:43:05;102510.84;;;-3.92;94.48
56006;BME280;41888;44.696;10.522;2023-02-10T05:45:33;102511.56;;;-3.89;94.83
56006;BME280;41888;44.696;10.522;2023-02-10T05:48:00;102518.22;;;-3.81;93.81
56006;BME280;41888;44.696;10.522;2023-02-10T05:50:26;102517.72;;;-3.91;94.14
56006;BME280;41888;44.696;10.522;2023-02-10T05:52:52;102520.16;;;-3.87;93.78
56006;BME280;41888;44.696;10.522;2023-02-10T05:55:18;102514.03;;;-3.86;93.71
56006;BME280;41888;44.696;10.522;2023-02-10T05:57:44;102522.56;;;-3.82;93.62
56006;BME280;41888;44.696;10.522;2023-02-10T06:00:11;102516.16;;;-3.73;92.95
56006;BME280;41888;44.696;10.522;2023-02-10T06:02:38;102520.81;;;-3.81;93.68
56006;BME280;41888;44.696;10.522;2023-02-10T06:05:04;102523.19;;;-3.75;93.22
56006;BME280;41888;44.696;10.522;2023-02-10T06:07:30;102522.63;;;-3.84;93.83
56006;BME280;41888;44.696;10.522;2023-02-10T06:09:57;102532.00;;;-3.79;93.56
56006;BME280;41888;44.696;10.522;2023-02-10T06:12:23;102523.94;;;-3.73;92.96
56006;BME280;41888;44.696;10.522;2023-02-10T06:14:49;102532.66;;;-3.74;92.91
56006;BME280;41888;44.696;10.522;2023-02-10T06:17:15;102526.69;;;-3.76;93.45
56006;BME280;41888;44.696;10.522;2023-02-10T06:19:41;102533.44;;;-3.72;93.54
56006;BME280;41888;44.696;10.522;2023-02-10T06:22:08;102538.91;;;-3.78;93.91
56006;BME280;41888;44.696;10.522;2023-02-10T06:24:35;102544.16;;;-3.80;94.06
56006;BME280;41888;44.696;10.522;2023-02-10T06:27:01;102540.69;;;-3.80;94.03
56006;BME280;41888;44.696;10.522;2023-02-10T06:29:28;102547.59;;;-3.79;94.00
56006;BME280;41888;44.696;10.522;2023-02-10T06:31:54;102563.00;;;-3.75;93.70
56006;BME280;41888;44.696;10.522;2023-02-10T06:34:20;102559.16;;;-3.65;93.08
56006;BME280;41888;44.696;10.522;2023-02-10T06:36:46;102571.13;;;-3.61;93.20
56006;BME280;41888;44.696;10.522;2023-02-10T06:39:12;102562.75;;;-3.47;92.47
56006;BME280;41888;44.696;10.522;2023-02-10T06:41:38;102566.81;;;-3.40;91.51
56006;BME280;41888;44.696;10.522;2023-02-10T06:44:05;102572.88;;;-3.61;92.72
56006;BME280;41888;44.696;10.522;2023-02-10T06:46:31;102574.16;;;-3.50;92.25
56006;BME280;41888;44.696;10.522;2023-02-10T06:48:57;102576.19;;;-3.36;90.79
56006;BME280;41888;44.696;10.522;2023-02-10T06:51:25;102571.44;;;-3.26;90.30
56006;BME280;41888;44.696;10.522;2023-02-10T06:53:51;102578.69;;;-2.92;87.70
56006;BME280;41888;44.696;10.522;2023-02-10T06:56:17;102588.19;;;-2.52;85.74
56006;BME280;41888;44.696;10.522;2023-02-10T06:58:44;102584.16;;;-2.21;83.14
56006;BME280;41888;44.696;10.522;2023-02-10T07:01:12;102589.09;;;-1.96;83.05
56006;BME280;41888;44.696;10.522;2023-02-10T07:03:39;102581.56;;;-1.66;79.46
56006;BME280;41888;44.696;10.522;2023-02-10T07:06:05;102590.06;;;-1.44;78.43
56006;BME280;41888;44.696;10.522;2023-02-10T07:08:32;102584.34;;;-1.52;77.75
56006;BME280;41888;44.696;10.522;2023-02-10T07:10:58;102597.28;;;-1.32;77.23
56006;BME280;41888;44.696;10.522;2023-02-10T07:13:24;102598.94;;;-1.12;75.73
56006;BME280;41888;44.696;10.522;2023-02-10T07:15:50;102597.44;;;-1.00;75.29
56006;BME280;41888;44.696;10.522;2023-02-10T07:18:17;102597.31;;;-0.97;74.95
56006;BME280;41888;44.696;10.522;2023-02-10T07:20:43;102606.22;;;-1.01;75.70
56006;BME280;41888;44.696;10.522;2023-02-10T07:23:09;102603.28;;;-0.95;75.26
56006;BME280;41888;44.696;10.522;2023-02-10T07:25:35;102604.19;;;-0.79;74.88
56006;BME280;41888;44.696;10.522;2023-02-10T07:28:01;102607.66;;;-0.78;75.04
56006;BME280;41888;44.696;10.522;2023-02-10T07:30:27;102607.09;;;-0.68;74.43
56006;BME280;41888;44.696;10.522;2023-02-10T07:32:54;102604.53;;;-0.52;74.06
56006;BME280;41888;44.696;10.522;2023-02-10T07:35:20;102609.19;;;-0.42;73.93
56006;BME280;41888;44.696;10.522;2023-02-10T07:37:46;102615.81;;;-0.34;73.05
56006;BME280;41888;44.696;10.522;2023-02-10T07:40:12;102617.94;;;-0.25;72.92
56006;BME280;41888;44.696;10.522;2023-02-10T07:42:38;102623.19;;;-0.10;72.14
56006;BME280;41888;44.696;10.522;2023-02-10T07:45:05;102629.97;;;0.10;70.28
56006;BME280;41888;44.696;10.522;2023-02-10T07:47:31;102633.94;;;0.17;69.90
56006;BME280;41888;44.696;10.522;2023-02-10T07:49:57;102645.00;;;0.38;69.70
56006;BME280;41888;44.696;10.522;2023-02-10T07:52:23;102650.31;;;0.68;68.97
56006;BME280;41888;44.696;10.522;2023-02-10T07:54:50;102650.34;;;0.82;68.49
56006;BME280;41888;44.696;10.522;2023-02-10T07:57:16;102649.25;;;0.86;69.66
56006;BME280;41888;44.696;10.522;2023-02-10T07:59:43;102661.22;;;0.90;68.82
56006;BME280;41888;44.696;10.522;2023-02-10T08:02:12;102662.19;;;0.89;68.66
56006;BME280;41888;44.696;10.522;2023-02-10T08:04:38;102664.88;;;0.88;68.06
56006;BME280;41888;44.696;10.522;2023-02-10T08:07:04;102663.00;;;1.05;68.13
56006;BME280;41888;44.696;10.522;2023-02-10T08:09:31;102674.44;;;1.18;67.96
56006;BME280;41888;44.696;10.522;2023-02-10T08:11:57;102669.50;;;1.28;67.59
56006;BME280;41888;44.696;10.522;2023-02-10T08:14:23;102667.66;;;1.30;69.06
56006;BME280;41888;44.696;10.522;2023-02-10T08:16:50;102675.50;;;1.74;68.69
56006;BME280;41888;44.696;10.522;2023-02-10T08:19:16;102673.22;;;1.96;66.46
56006;BME280;41888;44.696;10.522;2023-02-10T08:21:42;102679.22;;;2.12;66.14
56006;BME280;41888;44.696;10.522;2023-02-10T08:24:09;102679.94;;;2.29;65.73
56006;BME280;41888;44.696;10.522;2023-02-10T08:26:35;102681.44;;;2.33;64.99
56006;BME280;41888;44.696;10.522;2023-02-10T08:29:01;102687.75;;;2.30;64.85
56006;BME280;41888;44.696;10.522;2023-02-10T08:31:28;102684.94;;;2.60;64.21
56006;BME280;41888;44.696;10.522;2023-02-10T08:33:54;102684.66;;;2.91;62.90
56006;BME280;41888;44.696;10.522;2023-02-10T08:36:21;102691.94;;;3.27;61.68
56006;BME280;41888;44.696;10.522;2023-02-10T08:38:48;102684.69;;;3.81;59.94
56006;BME280;41888;44.696;10.522;2023-02-10T08:41:16;102688.22;;;4.31;57.75
56006;BME280;41888;44.696;10.522;2023-02-10T08:43:42;102685.63;;;4.79;56.27
56006;BME280;41888;44.696;10.522;2023-02-10T08:46:09;102695.25;;;5.38;54.88
56006;BME280;41888;44.696;10.522;2023-02-10T08:48:35;102687.59;;;5.58;53.08
56006;BME280;41888;44.696;10.522;2023-02-10T08:51:09;102688.31;;;5.60;51.45
56006;BME280;41888;44.696;10.522;2023-02-10T08:53:35;102701.25;;;6.85;48.01
56006;BME280;41888;44.696;10.522;2023-02-10T08:56:08;102709.47;;;8.96;43.07
56006;BME280;41888;44.696;10.522;2023-02-10T08:58:35;102710.72;;;10.88;38.38
56006;BME280;41888;44.696;10.522;2023-02-10T09:01:07;102723.72;;;12.55;35.13
56006;BME280;41888;44.696;10.522;2023-02-10T09:03:33;102733.41;;;13.31;33.06
56006;BME280;41888;44.696;10.522;2023-02-10T09:05:59;102742.91;;;14.53;29.92
56006;BME280;41888;44.696;10.522;2023-02-10T09:08:26;102743.31;;;14.18;29.81
56006;BME280;41888;44.696;10.522;2023-02-10T09:10:52;102748.75;;;15.33;27.94
56006;BME280;41888;44.696;10.522;2023-02-10T09:13:18;102755.72;;;15.42;27.66
56006;BME280;41888;44.696;10.522;2023-02-10T09:15:44;102764.13;;;15.39;27.86
56006;BME280;41888;44.696;10.522;2023-02-10T09:18:11;102763.75;;;16.46;27.35
56006;BME280;41888;44.696;10.522;2023-02-10T09:20:37;102761.59;;;16.71;27.98
56006;BME280;41888;44.696;10.522;2023-02-10T09:23:04;102755.22;;;15.84;27.64
56006;BME280;41888;44.696;10.522;2023-02-10T09:25:30;102756.91;;;16.44;27.26
56006;BME280;41888;44.696;10.522;2023-02-10T09:27:57;102761.53;;;16.35;26.70
56006;BME280;41888;44.696;10.522;2023-02-10T09:30:26;102775.19;;;17.42;25.79
56006;BME280;41888;44.696;10.522;2023-02-10T09:32:53;102763.72;;;16.02;26.19
56006;BME280;41888;44.696;10.522;2023-02-10T09:35:19;102770.13;;;17.53;25.30
56006;BME280;41888;44.696;10.522;2023-02-10T09:37:46;102766.31;;;16.84;24.87
56006;BME280;41888;44.696;10.522;2023-02-10T09:40:34;102764.50;;;16.26;25.26
56006;BME280;41888;44.696;10.522;2023-02-10T09:43:33;102761.63;;;15.60;25.50
56006;BME280;41888;44.696;10.522;2023-02-10T09:54:11;102765.66;;;17.88;23.33
56006;BME280;41888;44.696;10.522;2023-02-10T09:56:38;102768.91;;;17.35;23.20
56006;BME280;41888;44.696;10.522;2023-02-10T09:59:08;102770.47;;;17.44;23.57
56006;BME280;41888;44.696;10.522;2023-02-10T10:01:39;102775.78;;;18.14;23.34
56006;BME280;41888;44.696;10.522;2023-02-10T10:04:17;102778.09;;;17.89;22.89
56006;BME280;41888;44.696;10.522;2023-02-10T10:06:47;102765.56;;;17.75;22.89
56006;BME280;41888;44.696;10.522;2023-02-10T10:09:20;102762.84;;;18.37;22.73
56006;BME280;41888;44.696;10.522;2023-02-10T10:11:52;102766.38;;;18.03;22.88
56006;BME280;41888;44.696;10.522;2023-02-10T10:14:20;102770.34;;;18.76;22.18
56006;BME280;41888;44.696;10.522;2023-02-10T10:24:25;102765.16;;;17.78;22.86
56006;BME280;41888;44.696;10.522;2023-02-10T10:29:52;102769.19;;;17.89;22.96
56006;BME280;41888;44.696;10.522;2023-02-10T10:32:46;102758.56;;;17.81;23.42
56006;BME280;41888;44.696;10.522;2023-02-10T10:35:19;102756.31;;;17.84;23.42
56006;BME280;41888;44.696;10.522;2023-02-10T10:37:46;102761.41;;;18.00;23.30
56006;BME280;41888;44.696;10.522;2023-02-10T10:40:21;102762.16;;;17.60;23.48
56006;BME280;41888;44.696;10.522;2023-02-10T10:42:55;102759.66;;;17.86;23.27
56006;BME280;41888;44.696;10.522;2023-02-10T10:45:40;102754.25;;;17.16;23.87
56006;BME280;41888;44.696;10.522;2023-02-10T10:48:21;102757.69;;;18.01;23.77
56006;BME280;41888;44.696;10.522;2023-02-10T10:50:59;102752.44;;;16.66;25.03
56006;BME280;41888;44.696;10.522;2023-02-10T10:53:35;102752.81;;;16.63;24.86
56006;BME280;41888;44.696;10.522;2023-02-10T10:58:45;102737.13;;;16.81;24.57
56006;BME280;41888;44.696;10.522;2023-02-10T11:01:13;102740.09;;;17.28;23.94
56006;BME280;41888;44.696;10.522;2023-02-10T11:03:39;102731.94;;;17.01;23.96
56006;BME280;41888;44.696;10.522;2023-02-10T11:06:14;102733.59;;;16.80;23.91
56006;BME280;41888;44.696;10.522;2023-02-10T11:08:53;102741.22;;;17.19;23.91
56006;BME280;41888;44.696;10.522;2023-02-10T11:11:20;102732.28;;;16.91;24.15
56006;BME280;41888;44.696;10.522;2023-02-10T11:13:56;102729.84;;;15.04;25.63
56006;BME280;41888;44.696;10.522;2023-02-10T11:16:24;102715.69;;;15.93;25.40
56006;BME280;41888;44.696;10.522;2023-02-10T11:18:58;102723.00;;;16.14;24.87
56006;BME280;41888;44.696;10.522;2023-02-10T11:21:37;102717.91;;;15.75;25.25
56006;BME280;41888;44.696;10.522;2023-02-10T11:24:13;102721.16;;;16.14;25.51
56006;BME280;41888;44.696;10.522;2023-02-10T11:26:41;102721.22;;;15.77;25.66
56006;BME280;41888;44.696;10.522;2023-02-10T11:29:11;102725.00;;;15.68;25.84
56006;BME280;41888;44.696;10.522;2023-02-10T11:31:37;102722.16;;;15.84;25.64
56006;BME280;41888;44.696;10.522;2023-02-10T11:34:13;102713.16;;;13.85;27.43
56006;BME280;41888;44.696;10.522;2023-02-10T11:36:43;102716.34;;;14.66;27.01
56006;BME280;41888;44.696;10.522;2023-02-10T11:39:34;102708.00;;;14.61;27.01
56006;BME280;41888;44.696;10.522;2023-02-10T11:47:30;102699.06;;;14.46;27.09
56006;BME280;41888;44.696;10.522;2023-02-10T11:49:57;102701.44;;;14.41;27.61
56006;BME280;41888;44.696;10.522;2023-02-10T11:52:28;102703.88;;;15.27;26.74
56006;BME280;41888;44.696;10.522;2023-02-10T11:54:59;102694.00;;;15.05;26.87
56006;BME280;41888;44.696;10.522;2023-02-10T12:00:58;102682.00;;;14.39;27.81
56006;BME280;41888;44.696;10.522;2023-02-10T12:03:58;102680.94;;;14.01;28.18
56006;BME280;41888;44.696;10.522;2023-02-10T12:11:57;102676.84;;;14.29;27.67
56006;BME280;41888;44.696;10.522;2023-02-10T12:23:16;102658.44;;;14.26;28.48
56006;BME280;41888;44.696;10.522;2023-02-10T12:28:52;102657.63;;;14.18;29.00
56006;BME280;41888;44.696;10.522;2023-02-10T12:31:30;102650.19;;;13.97;28.51
56006;BME280;41888;44.696;10.522;2023-02-10T12:37:09;102632.47;;;13.08;29.81
56006;BME280;41888;44.696;10.522;2023-02-10T12:45:07;102623.25;;;13.51;29.17
56006;BME280;41888;44.696;10.522;2023-02-10T12:47:41;102630.38;;;13.75;29.23
56006;BME280;41888;44.696;10.522;2023-02-10T12:53:43;102613.06;;;12.90;31.07
56006;BME280;41888;44.696;10.522;2023-02-10T12:55:48;102617.44;;;12.99;30.87
56006;BME280;41888;44.696;10.522;2023-02-10T12:58:23;102599.06;;;13.13;30.63
56006;BME280;41888;44.696;10.522;2023-02-10T13:03:36;102599.38;;;12.61;31.17
56006;BME280;41888;44.696;10.522;2023-02-10T13:08:51;102600.53;;;12.58;31.88
56006;BME280;41888;44.696;10.522;2023-02-10T13:13:52;102593.50;;;11.83;32.20
56006;BME280;41888;44.696;10.522;2023-02-10T13:16:24;102596.72;;;11.69;32.14
56006;BME280;41888;44.696;10.522;2023-02-10T13:18:53;102594.81;;;11.27;33.17
56006;BME280;41888;44.696;10.522;2023-02-10T13:21:28;102592.94;;;11.20;33.58
56006;BME280;41888;44.696;10.522;2023-02-10T13:24:00;102594.53;;;10.87;34.46
56006;BME280;41888;44.696;10.522;2023-02-10T13:26:54;102595.59;;;10.58;34.94
56006;BME280;41888;44.696;10.522;2023-02-10T13:34:51;102596.66;;;10.30;34.37
56006;BME280;41888;44.696;10.522;2023-02-10T13:37:44;102594.00;;;10.30;33.73
56006;BME280;41888;44.696;10.522;2023-02-10T13:40:27;102582.75;;;10.36;34.16
56006;BME280;41888;44.696;10.522;2023-02-10T13:42:54;102581.75;;;10.20;34.54
56006;BME280;41888;44.696;10.522;2023-02-10T13:45:27;102577.50;;;10.44;33.12
56006;BME280;41888;44.696;10.522;2023-02-10T13:48:19;102577.41;;;10.54;33.60
56006;BME280;41888;44.696;10.522;2023-02-10T13:50:52;102574.25;;;10.50;33.21
56006;BME280;41888;44.696;10.522;2023-02-10T13:56:23;102574.25;;;9.68;35.80
56006;BME280;41888;44.696;10.522;2023-02-10T13:58:54;102576.28;;;9.94;35.39
56006;BME280;41888;44.696;10.522;2023-02-10T14:06:53;102569.66;;;10.15;35.53
56006;BME280;41888;44.696;10.522;2023-02-10T14:09:31;102566.38;;;10.31;34.92
56006;BME280;41888;44.696;10.522;2023-02-10T14:12:01;102568.22;;;10.48;34.41
56006;BME280;41888;44.696;10.522;2023-02-10T14:14:39;102564.50;;;10.41;34.53
56006;BME280;41888;44.696;10.522;2023-02-10T14:19:43;102557.72;;;10.29;34.39
56006;BME280;41888;44.696;10.522;2023-02-10T14:22:30;102563.50;;;10.60;34.68
56006;BME280;41888;44.696;10.522;2023-02-10T14:25:04;102565.78;;;10.55;34.59
56006;BME280;41888;44.696;10.522;2023-02-10T14:27:41;102565.31;;;10.59;34.44
56006;BME280;41888;44.696;10.522;2023-02-10T14:30:24;102557.50;;;10.40;33.88
56006;BME280;41888;44.696;10.522;2023-02-10T14:32:52;102559.41;;;10.03;34.36
56006;BME280;41888;44.696;10.522;2023-02-10T14:35:24;102567.28;;;9.95;34.69
56006;BME280;41888;44.696;10.522;2023-02-10T14:37:57;102565.13;;;10.08;34.38
56006;BME280;41888;44.696;10.522;2023-02-10T14:40:25;102559.03;;;10.15;33.82
56006;BME280;41888;44.696;10.522;2023-02-10T14:42:52;102565.56;;;10.03;34.02
56006;BME280;41888;44.696;10.522;2023-02-10T14:45:24;102558.81;;;9.82;34.25
56006;BME280;41888;44.696;10.522;2023-02-10T14:47:53;102556.41;;;9.88;34.77